sensor_id;sensor_type;location;lat;lon;timestamp;temperature;humidity
22781;DHT22;11557;50.884;4.322;2023-07-13T00:01:45;18.80;99.90
22781;DHT22;11557;50.884;4.322;2023-07-13T00:04:16;18.70;99.90
22781;DHT22;11557;50.884;4.322;2023-07-13T00:06:43;18.60;99.90
22781;DHT22;11557;50.884;4.322;2023-07-13T00:09:11;18.80;99.90
22781;DHT22;11557;50.884;4.322;2023-07-13T00:11:38;18.80;99.90
22781;DHT22;11557;50.884;4.322;2023-07-13T00:14:03;18.80;99.90
22781;DHT22;11557;50.884;4.322;2023-07-13T00:16:29;18.70;99.90
22781;DHT22;11557;50.884;4.322;2023-07-13T00:18:55;18.70;99.90
22781;DHT22;11557;50.884;4.322;2023-07-13T00:21:20;18.70;99.90
22781;DHT22;11557;50.884;4.322;2023-07-13T00:23:46;18.70;99.90
22781;DHT22;11557;50.884;4.322;2023-07-13T00:26:12;18.60;99.90
22781;DHT22;11557;50.884;4.322;2023-07-13T00:28:38;18.60;99.90
22781;DHT22;11557;50.884;4.322;2023-07-13T00:31:05;18.60;99.90
22781;DHT22;11557;50.884;4.322;2023-07-13T00:33:31;18.60;99.90
22781;DHT22;11557;50.884;4.322;2023-07-13T00:35:58;18.10;99.90
22781;DHT22;11557;50.884;4.322;2023-07-13T00:38:24;18.60;99.90
22781;DHT22;11557;50.884;4.322;2023-07-13T00:40:51;18.60;99.90
22781;DHT22;11557;50.884;4.322;2023-07-13T00:43:19;18.60;99.90
22781;DHT22;11557;50.884;4.322;2023-07-13T00:48:14;18.40;99.90
22781;DHT22;11557;50.884;4.322;2023-07-13T00:50:41;18.50;99.90
22781;DHT22;11557;50.884;4.322;2023-07-13T00:53:08;18.60;99.90
22781;DHT22;11557;50.884;4.322;2023-07-13T00:55:35;18.70;99.90
22781;DHT22;11557;50.884;4.322;2023-07-13T00:58:01;18.60;99.90
22781;DHT22;11557;50.884;4.322;2023-07-13T01:00:29;18.60;99.90
22781;DHT22;11557;50.884;4.322;2023-07-13T01:02:55;18.70;99.90
22781;DHT22;11557;50.884;4.322;2023-07-13T01:05:22;18.60;99.90
22781;DHT22;11557;50.884;4.322;2023-07-13T01:07:49;18.40;99.90
22781;DHT22;11557;50.884;4.322;2023-07-13T01:10:16;18.50;99.90
22781;DHT22;11557;50.884;4.322;2023-07-13T01:12:41;18.40;99.90
22781;DHT22;11557;50.884;4.322;2023-07-13T01:15:40;18.40;99.90
22781;DHT22;11557;50.884;4.322;2023-07-13T01:18:09;18.30;99.90
22781;DHT22;11557;50.884;4.322;2023-07-13T01:20:36;18.30;99.90
22781;DHT22;11557;50.884;4.322;2023-07-13T01:23:11;18.20;99.90
22781;DHT22;11557;50.884;4.322;2023-07-13T01:25:38;18.20;99.90
22781;DHT22;11557;50.884;4.322;2023-07-13T01:28:08;18.20;99.90
22781;DHT22;11557;50.884;4.322;2023-07-13T01:30:38;18.20;99.90
22781;DHT22;11557;50.884;4.322;2023-07-13T01:33:06;18.30;99.90
22781;DHT22;11557;50.884;4.322;2023-07-13T01:35:33;18.30;99.90
22781;DHT22;11557;50.884;4.322;2023-07-13T01:37:58;18.20;99.90
22781;DHT22;11557;50.884;4.322;2023-07-13T01:40:25;18.30;99.90
22781;DHT22;11557;50.884;4.322;2023-07-13T01:42:51;18.40;99.90
22781;DHT22;11557;50.884;4.322;2023-07-13T01:45:17;18.30;99.90
22781;DHT22;11557;50.884;4.322;2023-07-13T01:47:42;18.40;99.90
22781;DHT22;11557;50.884;4.322;2023-07-13T01:50:08;18.40;99.90
22781;DHT22;11557;50.884;4.322;2023-07-13T01:52:34;18.40;99.90
22781;DHT22;11557;50.884;4.322;2023-07-13T01:55:00;18.30;99.90
22781;DHT22;11557;50.884;4.322;2023-07-13T01:57:25;18.40;99.90
22781;DHT22;11557;50.884;4.322;2023-07-13T01:59:51;18.30;99.90
22781;DHT22;11557;50.884;4.322;2023-07-13T02:02:16;18.30;99.90
22781;DHT22;11557;50.884;4.322;2023-07-13T02:04:42;18.30;99.90
22781;DHT22;11557;50.884;4.322;2023-07-13T02:07:08;18.20;99.90
22781;DHT22;11557;50.884;4.322;2023-07-13T02:09:34;18.40;99.90
22781;DHT22;11557;50.884;4.322;2023-07-13T02:12:00;18.30;99.90
22781;DHT22;11557;50.884;4.322;2023-07-13T02:14:26;18.10;99.90
22781;DHT22;11557;50.884;4.322;2023-07-13T02:16:52;18.10;99.90
22781;DHT22;11557;50.884;4.322;2023-07-13T02:19:17;18.20;99.90
22781;DHT22;11557;50.884;4.322;2023-07-13T02:21:43;18.20;99.90
22781;DHT22;11557;50.884;4.322;2023-07-13T02:24:08;18.30;99.90
22781;DHT22;11557;50.884;4.322;2023-07-13T02:26:34;18.10;99.90
22781;DHT22;11557;50.884;4.322;2023-07-13T02:29:00;18.10;99.90
22781;DHT22;11557;50.884;4.322;2023-07-13T02:31:26;18.10;99.90
22781;DHT22;11557;50.884;4.322;2023-07-13T02:33:51;18.20;99.90
22781;DHT22;11557;50.884;4.322;2023-07-13T02:36:17;18.10;99.90
22781;DHT22;11557;50.884;4.322;2023-07-13T02:38:44;18.10;99.90
22781;DHT22;11557;50.884;4.322;2023-07-13T02:41:09;18.10;99.90
22781;DHT22;11557;50.884;4.322;2023-07-13T02:43:38;18.00;99.90
22781;DHT22;11557;50.884;4.322;2023-07-13T02:46:03;18.00;99.90
22781;DHT22;11557;50.884;4.322;2023-07-13T02:48:33;18.00;99.90
22781;DHT22;11557;50.884;4.322;2023-07-13T02:50:59;17.90;99.90
22781;DHT22;11557;50.884;4.322;2023-07-13T02:53:25;17.90;99.90
22781;DHT22;11557;50.884;4.322;2023-07-13T02:55:50;18.00;99.90
22781;DHT22;11557;50.884;4.322;2023-07-13T02:58:16;17.90;99.90
22781;DHT22;11557;50.884;4.322;2023-07-13T03:00:43;17.70;99.90
22781;DHT22;11557;50.884;4.322;2023-07-13T03:03:09;17.80;99.90
22781;DHT22;11557;50.884;4.322;2023-07-13T03:05:37;17.90;99.90
22781;DHT22;11557;50.884;4.322;2023-07-13T03:08:03;17.80;99.90
22781;DHT22;11557;50.884;4.322;2023-07-13T03:10:29;17.70;99.90
22781;DHT22;11557;50.884;4.322;2023-07-13T03:12:55;17.70;99.90
22781;DHT22;11557;50.884;4.322;2023-07-13T03:15:20;17.80;99.90
22781;DHT22;11557;50.884;4.322;2023-07-13T03:17:46;17.80;99.90
22781;DHT22;11557;50.884;4.322;2023-07-13T03:20:12;17.90;99.90
22781;DHT22;11557;50.884;4.322;2023-07-13T03:22:38;17.80;99.90
22781;DHT22;11557;50.884;4.322;2023-07-13T03:25:04;17.70;99.90
22781;DHT22;11557;50.884;4.322;2023-07-13T03:27:30;17.70;99.90
22781;DHT22;11557;50.884;4.322;2023-07-13T03:29:55;17.60;99.90
22781;DHT22;11557;50.884;4.322;2023-07-13T03:32:22;17.60;99.90
22781;DHT22;11557;50.884;4.322;2023-07-13T03:34:47;17.50;99.90
22781;DHT22;11557;50.884;4.322;2023-07-13T03:37:13;17.50;99.90
22781;DHT22;11557;50.884;4.322;2023-07-13T03:39:39;17.30;99.90
22781;DHT22;11557;50.884;4.322;2023-07-13T03:42:05;17.40;99.90
22781;DHT22;11557;50.884;4.322;2023-07-13T03:44:30;17.50;99.90
22781;DHT22;11557;50.884;4.322;2023-07-13T03:46:56;17.70;99.90
22781;DHT22;11557;50.884;4.322;2023-07-13T03:49:21;17.70;99.90
22781;DHT22;11557;50.884;4.322;2023-07-13T03:51:48;17.70;99.90
22781;DHT22;11557;50.884;4.322;2023-07-13T03:54:14;17.80;99.90
22781;DHT22;11557;50.884;4.322;2023-07-13T03:56:39;17.70;99.90
22781;DHT22;11557;50.884;4.322;2023-07-13T03:59:05;17.60;99.90
22781;DHT22;11557;50.884;4.322;2023-07-13T04:01:31;17.70;99.90
22781;DHT22;11557;50.884;4.322;2023-07-13T04:03:57;17.60;99.90
22781;DHT22;11557;50.884;4.322;2023-07-13T04:06:26;17.70;99.90
22781;DHT22;11557;50.884;4.322;2023-07-13T04:08:56;17.70;99.90
22781;DHT22;11557;50.884;4.322;2023-07-13T04:11:23;17.70;99.90
22781;DHT22;11557;50.884;4.322;2023-07-13T04:13:50;17.70;99.90
22781;DHT22;11557;50.884;4.322;2023-07-13T04:16:17;17.50;99.90
22781;DHT22;11557;50.884;4.322;2023-07-13T04:18:43;17.60;99.90
22781;DHT22;11557;50.884;4.322;2023-07-13T04:21:09;17.60;99.90
22781;DHT22;11557;50.884;4.322;2023-07-13T04:23:36;17.70;99.90
22781;DHT22;11557;50.884;4.322;2023-07-13T04:26:02;17.80;99.90
22781;DHT22;11557;50.884;4.322;2023-07-13T04:28:28;17.80;99.90
22781;DHT22;11557;50.884;4.322;2023-07-13T04:30:54;17.90;99.90
22781;DHT22;11557;50.884;4.322;2023-07-13T04:33:19;18.00;99.90
22781;DHT22;11557;50.884;4.322;2023-07-13T04:35:52;18.00;99.90
22781;DHT22;11557;50.884;4.322;2023-07-13T04:38:26;18.10;99.90
22781;DHT22;11557;50.884;4.322;2023-07-13T04:40:57;18.00;99.90
22781;DHT22;11557;50.884;4.322;2023-07-13T04:43:24;17.80;99.90
22781;DHT22;11557;50.884;4.322;2023-07-13T04:45:51;17.90;99.90
22781;DHT22;11557;50.884;4.322;2023-07-13T04:48:16;17.70;99.90
22781;DHT22;11557;50.884;4.322;2023-07-13T04:50:42;17.60;99.90
22781;DHT22;11557;50.884;4.322;2023-07-13T04:53:08;17.60;99.90
22781;DHT22;11557;50.884;4.322;2023-07-13T04:55:34;17.70;99.90
22781;DHT22;11557;50.884;4.322;2023-07-13T04:58:00;17.60;99.90
22781;DHT22;11557;50.884;4.322;2023-07-13T05:00:26;17.60;99.90
22781;DHT22;11557;50.884;4.322;2023-07-13T05:02:53;17.50;99.90
22781;DHT22;11557;50.884;4.322;2023-07-13T05:05:19;17.70;99.90
22781;DHT22;11557;50.884;4.322;2023-07-13T05:07:44;18.00;99.90
22781;DHT22;11557;50.884;4.322;2023-07-13T05:10:10;18.00;99.90
22781;DHT22;11557;50.884;4.322;2023-07-13T05:12:35;17.90;99.90
22781;DHT22;11557;50.884;4.322;2023-07-13T05:15:02;17.90;99.90
22781;DHT22;11557;50.884;4.322;2023-07-13T05:17:28;18.00;99.90
22781;DHT22;11557;50.884;4.322;2023-07-13T05:19:54;18.10;99.90
22781;DHT22;11557;50.884;4.322;2023-07-13T05:22:20;18.20;99.90
22781;DHT22;11557;50.884;4.322;2023-07-13T05:24:46;18.10;99.90
22781;DHT22;11557;50.884;4.322;2023-07-13T05:27:11;18.10;99.90
22781;DHT22;11557;50.884;4.322;2023-07-13T05:29:37;18.10;99.90
22781;DHT22;11557;50.884;4.322;2023-07-13T05:32:03;18.00;99.90
22781;DHT22;11557;50.884;4.322;2023-07-13T05:34:29;17.90;99.90
22781;DHT22;11557;50.884;4.322;2023-07-13T05:36:54;17.90;99.90
22781;DHT22;11557;50.884;4.322;2023-07-13T05:39:20;18.00;99.90
22781;DHT22;11557;50.884;4.322;2023-07-13T05:41:46;18.00;99.90
22781;DHT22;11557;50.884;4.322;2023-07-13T05:44:11;17.90;99.90
22781;DHT22;11557;50.884;4.322;2023-07-13T05:46:37;18.00;99.90
22781;DHT22;11557;50.884;4.322;2023-07-13T05:49:03;18.00;99.90
22781;DHT22;11557;50.884;4.322;2023-07-13T05:51:28;17.90;99.90
22781;DHT22;11557;50.884;4.322;2023-07-13T05:53:54;17.90;99.90
22781;DHT22;11557;50.884;4.322;2023-07-13T05:56:20;17.90;99.90
22781;DHT22;11557;50.884;4.322;2023-07-13T05:58:47;17.80;99.90
22781;DHT22;11557;50.884;4.322;2023-07-13T06:01:14;18.10;99.90
22781;DHT22;11557;50.884;4.322;2023-07-13T06:03:40;18.10;99.90
22781;DHT22;11557;50.884;4.322;2023-07-13T06:06:07;18.10;99.90
22781;DHT22;11557;50.884;4.322;2023-07-13T06:08:32;18.20;99.90
22781;DHT22;11557;50.884;4.322;2023-07-13T06:11:24;18.20;99.90
22781;DHT22;11557;50.884;4.322;2023-07-13T06:13:48;18.40;99.90
22781;DHT22;11557;50.884;4.322;2023-07-13T06:16:14;18.20;99.90
22781;DHT22;11557;50.884;4.322;2023-07-13T06:18:40;18.20;99.90
22781;DHT22;11557;50.884;4.322;2023-07-13T06:21:14;18.30;99.90
22781;DHT22;11557;50.884;4.322;2023-07-13T06:23:40;18.50;99.90
22781;DHT22;11557;50.884;4.322;2023-07-13T06:26:06;18.50;99.90
22781;DHT22;11557;50.884;4.322;2023-07-13T06:28:33;18.50;99.90
22781;DHT22;11557;50.884;4.322;2023-07-13T06:30:59;18.60;99.90
22781;DHT22;11557;50.884;4.322;2023-07-13T06:33:25;18.70;99.90
22781;DHT22;11557;50.884;4.322;2023-07-13T06:35:51;18.80;99.90
22781;DHT22;11557;50.884;4.322;2023-07-13T06:38:17;19.00;99.90
22781;DHT22;11557;50.884;4.322;2023-07-13T06:40:44;18.90;99.90
22781;DHT22;11557;50.884;4.322;2023-07-13T06:43:09;19.00;99.90
22781;DHT22;11557;50.884;4.322;2023-07-13T06:45:41;19.20;99.90
22781;DHT22;11557;50.884;4.322;2023-07-13T06:48:07;19.30;99.90
22781;DHT22;11557;50.884;4.322;2023-07-13T06:50:33;19.30;99.90
22781;DHT22;11557;50.884;4.322;2023-07-13T06:52:59;19.40;99.90
22781;DHT22;11557;50.884;4.322;2023-07-13T06:55:25;19.50;99.90
22781;DHT22;11557;50.884;4.322;2023-07-13T06:57:51;19.50;99.90
22781;DHT22;11557;50.884;4.322;2023-07-13T07:00:17;19.70;99.90
22781;DHT22;11557;50.884;4.322;2023-07-13T07:02:42;19.50;99.90
22781;DHT22;11557;50.884;4.322;2023-07-13T07:05:08;19.90;99.90
22781;DHT22;11557;50.884;4.322;2023-07-13T07:07:34;20.40;99.90
22781;DHT22;11557;50.884;4.322;2023-07-13T07:09:59;20.80;99.90
22781;DHT22;11557;50.884;4.322;2023-07-13T07:12:25;21.00;99.90
22781;DHT22;11557;50.884;4.322;2023-07-13T07:14:51;20.90;99.90
22781;DHT22;11557;50.884;4.322;2023-07-13T07:17:16;20.90;99.90
22781;DHT22;11557;50.884;4.322;2023-07-13T07:19:42;20.70;99.90
22781;DHT22;11557;50.884;4.322;2023-07-13T07:22:08;20.70;99.90
22781;DHT22;11557;50.884;4.322;2023-07-13T07:24:34;20.70;99.90
22781;DHT22;11557;50.884;4.322;2023-07-13T07:26:59;21.00;99.90
22781;DHT22;11557;50.884;4.322;2023-07-13T07:29:25;20.70;99.90
22781;DHT22;11557;50.884;4.322;2023-07-13T07:31:53;20.80;99.90
22781;DHT22;11557;50.884;4.322;2023-07-13T07:34:19;20.90;99.90
22781;DHT22;11557;50.884;4.322;2023-07-13T07:36:46;21.90;99.90
22781;DHT22;11557;50.884;4.322;2023-07-13T07:39:12;24.10;99.90
22781;DHT22;11557;50.884;4.322;2023-07-13T07:41:38;24.30;99.90
22781;DHT22;11557;50.884;4.322;2023-07-13T07:44:04;23.80;99.90
22781;DHT22;11557;50.884;4.322;2023-07-13T07:46:30;23.80;99.90
22781;DHT22;11557;50.884;4.322;2023-07-13T07:48:56;23.80;99.90
22781;DHT22;11557;50.884;4.322;2023-07-13T07:51:22;24.20;99.90
22781;DHT22;11557;50.884;4.322;2023-07-13T07:53:48;25.60;99.90
22781;DHT22;11557;50.884;4.322;2023-07-13T07:56:13;26.10;99.90
22781;DHT22;11557;50.884;4.322;2023-07-13T07:58:41;25.70;99.90
22781;DHT22;11557;50.884;4.322;2023-07-13T08:01:07;25.70;99.90
22781;DHT22;11557;50.884;4.322;2023-07-13T08:03:33;25.40;99.90
22781;DHT22;11557;50.884;4.322;2023-07-13T08:05:59;24.80;99.90
22781;DHT22;11557;50.884;4.322;2023-07-13T08:08:25;25.30;99.90
22781;DHT22;11557;50.884;4.322;2023-07-13T08:10:50;25.90;99.90
22781;DHT22;11557;50.884;4.322;2023-07-13T08:13:16;25.80;99.90
22781;DHT22;11557;50.884;4.322;2023-07-13T08:15:41;24.90;99.90
22781;DHT22;11557;50.884;4.322;2023-07-13T08:18:07;24.60;99.90
22781;DHT22;11557;50.884;4.322;2023-07-13T08:20:37;24.40;99.90
22781;DHT22;11557;50.884;4.322;2023-07-13T08:23:03;23.80;99.90
22781;DHT22;11557;50.884;4.322;2023-07-13T08:25:29;23.70;99.90
22781;DHT22;11557;50.884;4.322;2023-07-13T08:27:55;23.80;99.90
22781;DHT22;11557;50.884;4.322;2023-07-13T08:30:20;23.50;99.90
22781;DHT22;11557;50.884;4.322;2023-07-13T08:32:46;23.20;99.90
22781;DHT22;11557;50.884;4.322;2023-07-13T08:35:12;23.50;99.90
22781;DHT22;11557;50.884;4.322;2023-07-13T08:37:39;23.30;99.90
22781;DHT22;11557;50.884;4.322;2023-07-13T08:40:05;23.00;99.90
22781;DHT22;11557;50.884;4.322;2023-07-13T08:42:45;23.30;99.90
22781;DHT22;11557;50.884;4.322;2023-07-13T08:45:28;23.70;99.90
22781;DHT22;11557;50.884;4.322;2023-07-13T08:48:20;24.60;99.90
22781;DHT22;11557;50.884;4.322;2023-07-13T08:51:01;24.90;99.90
22781;DHT22;11557;50.884;4.322;2023-07-13T08:53:36;26.50;99.90
22781;DHT22;11557;50.884;4.322;2023-07-13T08:56:04;27.40;99.90
22781;DHT22;11557;50.884;4.322;2023-07-13T08:58:33;28.00;99.90
22781;DHT22;11557;50.884;4.322;2023-07-13T09:03:57;29.10;99.90
22781;DHT22;11557;50.884;4.322;2023-07-13T09:06:31;28.70;99.90
22781;DHT22;11557;50.884;4.322;2023-07-13T09:09:04;28.10;99.90
22781;DHT22;11557;50.884;4.322;2023-07-13T09:11:36;28.00;99.90
22781;DHT22;11557;50.884;4.322;2023-07-13T09:16:46;27.50;99.90
22781;DHT22;11557;50.884;4.322;2023-07-13T09:19:19;27.50;99.90
22781;DHT22;11557;50.884;4.322;2023-07-13T09:21:45;26.60;99.90
22781;DHT22;11557;50.884;4.322;2023-07-13T09:27:21;26.00;99.90
22781;DHT22;11557;50.884;4.322;2023-07-13T09:29:57;26.80;99.90
22781;DHT22;11557;50.884;4.322;2023-07-13T09:32:26;26.90;99.90
22781;DHT22;11557;50.884;4.322;2023-07-13T09:34:54;27.10;99.90
22781;DHT22;11557;50.884;4.322;2023-07-13T09:37:30;27.80;99.90
22781;DHT22;11557;50.884;4.322;2023-07-13T09:39:56;28.10;99.90
22781;DHT22;11557;50.884;4.322;2023-07-13T09:42:25;28.40;99.90
22781;DHT22;11557;50.884;4.322;2023-07-13T09:44:59;28.70;99.90
22781;DHT22;11557;50.884;4.322;2023-07-13T09:47:32;29.60;99.90
22781;DHT22;11557;50.884;4.322;2023-07-13T09:50:03;27.90;99.90
22781;DHT22;11557;50.884;4.322;2023-07-13T09:52:47;27.90;99.90
22781;DHT22;11557;50.884;4.322;2023-07-13T09:55:35;28.00;99.90
22781;DHT22;11557;50.884;4.322;2023-07-13T09:58:13;28.00;99.90
22781;DHT22;11557;50.884;4.322;2023-07-13T10:00:40;27.70;99.90
22781;DHT22;11557;50.884;4.322;2023-07-13T10:03:34;26.90;99.90
22781;DHT22;11557;50.884;4.322;2023-07-13T10:06:21;27.00;99.90
22781;DHT22;11557;50.884;4.322;2023-07-13T10:08:49;26.80;99.90
22781;DHT22;11557;50.884;4.322;2023-07-13T10:11:29;26.30;99.90
22781;DHT22;11557;50.884;4.322;2023-07-13T10:14:16;26.60;99.90
22781;DHT22;11557;50.884;4.322;2023-07-13T10:16:44;26.00;99.90
22781;DHT22;11557;50.884;4.322;2023-07-13T10:19:18;25.60;99.90
22781;DHT22;11557;50.884;4.322;2023-07-13T10:21:57;25.70;99.90
22781;DHT22;11557;50.884;4.322;2023-07-13T10:24:27;25.90;99.90
22781;DHT22;11557;50.884;4.322;2023-07-13T10:29:46;26.20;99.90
22781;DHT22;11557;50.884;4.322;2023-07-13T10:32:13;25.60;99.90
22781;DHT22;11557;50.884;4.322;2023-07-13T10:34:45;24.80;99.90
22781;DHT22;11557;50.884;4.322;2023-07-13T10:37:21;24.60;99.90
22781;DHT22;11557;50.884;4.322;2023-07-13T10:39:49;24.30;99.90
22781;DHT22;11557;50.884;4.322;2023-07-13T10:42:30;24.00;99.90
22781;DHT22;11557;50.884;4.322;2023-07-13T10:44:57;23.60;99.90
22781;DHT22;11557;50.884;4.322;2023-07-13T10:47:24;23.30;99.90
22781;DHT22;11557;50.884;4.322;2023-07-13T10:49:53;22.90;99.90
22781;DHT22;11557;50.884;4.322;2023-07-13T10:52:46;22.50;99.90
22781;DHT22;11557;50.884;4.322;2023-07-13T10:56:16;22.40;99.90
22781;DHT22;11557;50.884;4.322;2023-07-13T10:58:27;22.40;99.90
22781;DHT22;11557;50.884;4.322;2023-07-13T11:03:37;23.30;99.90
22781;DHT22;11557;50.884;4.322;2023-07-13T11:06:16;23.60;99.90
22781;DHT22;11557;50.884;4.322;2023-07-13T11:14:00;24.00;99.90
22781;DHT22;11557;50.884;4.322;2023-07-13T11:21:28;23.80;99.90
22781;DHT22;11557;50.884;4.322;2023-07-13T11:24:15;23.50;99.90
22781;DHT22;11557;50.884;4.322;2023-07-13T11:26:42;23.40;99.90
22781;DHT22;11557;50.884;4.322;2023-07-13T11:31:58;23.80;99.90
22781;DHT22;11557;50.884;4.322;2023-07-13T11:34:31;23.80;99.90
22781;DHT22;11557;50.884;4.322;2023-07-13T11:36:59;23.50;99.90
22781;DHT22;11557;50.884;4.322;2023-07-13T11:39:34;23.30;99.90
22781;DHT22;11557;50.884;4.322;2023-07-13T11:42:05;23.00;99.90
22781;DHT22;11557;50.884;4.322;2023-07-13T11:44:34;22.70;99.90
22781;DHT22;11557;50.884;4.322;2023-07-13T11:47:08;22.30;99.90
22781;DHT22;11557;50.884;4.322;2023-07-13T11:49:44;22.00;99.90
22781;DHT22;11557;50.884;4.322;2023-07-13T11:52:21;21.90;99.90
22781;DHT22;11557;50.884;4.322;2023-07-13T11:54:50;21.30;99.90
22781;DHT22;11557;50.884;4.322;2023-07-13T11:57:29;21.20;99.90
22781;DHT22;11557;50.884;4.322;2023-07-13T11:59:58;21.30;99.90
22781;DHT22;11557;50.884;4.322;2023-07-13T12:02:31;21.10;99.90
22781;DHT22;11557;50.884;4.322;2023-07-13T12:04:59;21.20;99.90
22781;DHT22;11557;50.884;4.322;2023-07-13T12:07:29;21.30;99.90
22781;DHT22;11557;50.884;4.322;2023-07-13T12:10:22;21.50;99.90
22781;DHT22;11557;50.884;4.322;2023-07-13T12:12:58;21.40;99.90
22781;DHT22;11557;50.884;4.322;2023-07-13T12:15:36;21.40;99.90
22781;DHT22;11557;50.884;4.322;2023-07-13T12:18:02;21.50;99.90
22781;DHT22;11557;50.884;4.322;2023-07-13T12:20:34;21.50;99.90
22781;DHT22;11557;50.884;4.322;2023-07-13T12:23:05;21.10;99.90
22781;DHT22;11557;50.884;4.322;2023-07-13T12:25:31;20.80;99.90
22781;DHT22;11557;50.884;4.322;2023-07-13T12:27:57;19.80;99.90
22781;DHT22;11557;50.884;4.322;2023-07-13T12:30:29;19.70;99.90
22781;DHT22;11557;50.884;4.322;2023-07-13T12:32:58;19.70;99.90
22781;DHT22;11557;50.884;4.322;2023-07-13T12:35:25;19.60;99.90
22781;DHT22;11557;50.884;4.322;2023-07-13T12:37:52;19.70;99.90
22781;DHT22;11557;50.884;4.322;2023-07-13T12:40:27;19.90;99.90
22781;DHT22;11557;50.884;4.322;2023-07-13T12:42:54;20.00;99.90
22781;DHT22;11557;50.884;4.322;2023-07-13T12:45:25;19.80;99.90
22781;DHT22;11557;50.884;4.322;2023-07-13T12:48:02;19.80;99.90
22781;DHT22;11557;50.884;4.322;2023-07-13T12:50:41;20.00;99.90
22781;DHT22;11557;50.884;4.322;2023-07-13T12:53:13;20.20;99.90
22781;DHT22;11557;50.884;4.322;2023-07-13T12:55:46;19.80;99.90
22781;DHT22;11557;50.884;4.322;2023-07-13T12:58:36;19.80;99.90
22781;DHT22;11557;50.884;4.322;2023-07-13T13:01:04;19.70;99.90
22781;DHT22;11557;50.884;4.322;2023-07-13T13:03:31;19.90;99.90
22781;DHT22;11557;50.884;4.322;2023-07-13T13:08:29;20.40;99.90
22781;DHT22;11557;50.884;4.322;2023-07-13T13:10:54;20.40;99.90
22781;DHT22;11557;50.884;4.322;2023-07-13T13:13:20;20.50;99.90
22781;DHT22;11557;50.884;4.322;2023-07-13T13:15:46;20.50;99.90
22781;DHT22;11557;50.884;4.322;2023-07-13T13:18:20;20.60;99.90
22781;DHT22;11557;50.884;4.322;2023-07-13T13:20:46;20.60;99.90
22781;DHT22;11557;50.884;4.322;2023-07-13T13:23:18;20.80;99.90
22781;DHT22;11557;50.884;4.322;2023-07-13T13:25:50;21.00;99.90
22781;DHT22;11557;50.884;4.322;2023-07-13T13:28:18;21.20;99.90
22781;DHT22;11557;50.884;4.322;2023-07-13T13:30:45;21.30;99.90
22781;DHT22;11557;50.884;4.322;2023-07-13T13:33:14;20.60;99.90
22781;DHT22;11557;50.884;4.322;2023-07-13T13:35:41;22.10;99.90
22781;DHT22;11557;50.884;4.322;2023-07-13T13:38:24;22.60;99.90
22781;DHT22;11557;50.884;4.322;2023-07-13T13:40:50;23.00;99.90
22781;DHT22;11557;50.884;4.322;2023-07-13T13:43:26;23.10;99.90
22781;DHT22;11557;50.884;4.322;2023-07-13T13:45:53;23.40;99.90
22781;DHT22;11557;50.884;4.322;2023-07-13T13:48:33;23.70;99.90
22781;DHT22;11557;50.884;4.322;2023-07-13T13:51:00;23.90;99.90
22781;DHT22;11557;50.884;4.322;2023-07-13T13:53:26;23.60;99.90
22781;DHT22;11557;50.884;4.322;2023-07-13T13:55:52;23.50;99.90
22781;DHT22;11557;50.884;4.322;2023-07-13T13:58:21;23.60;99.90
22781;DHT22;11557;50.884;4.322;2023-07-13T14:00:47;23.70;99.90
22781;DHT22;11557;50.884;4.322;2023-07-13T14:03:20;24.00;99.90
22781;DHT22;11557;50.884;4.322;2023-07-13T14:05:47;24.30;99.90
22781;DHT22;11557;50.884;4.322;2023-07-13T14:08:19;24.40;99.90
22781;DHT22;11557;50.884;4.322;2023-07-13T14:10:47;24.60;99.90
22781;DHT22;11557;50.884;4.322;2023-07-13T14:13:20;24.70;99.90
22781;DHT22;11557;50.884;4.322;2023-07-13T14:15:46;24.80;99.90
22781;DHT22;11557;50.884;4.322;2023-07-13T14:18:13;24.70;99.90
22781;DHT22;11557;50.884;4.322;2023-07-13T14:20:44;24.90;99.90
22781;DHT22;11557;50.884;4.322;2023-07-13T14:23:10;24.40;99.90
22781;DHT22;11557;50.884;4.322;2023-07-13T14:25:36;24.50;99.90
22781;DHT22;11557;50.884;4.322;2023-07-13T14:30:46;24.50;99.90
22781;DHT22;11557;50.884;4.322;2023-07-13T14:33:12;24.20;99.90
22781;DHT22;11557;50.884;4.322;2023-07-13T14:35:39;24.20;99.90
22781;DHT22;11557;50.884;4.322;2023-07-13T14:38:05;24.00;99.90
22781;DHT22;11557;50.884;4.322;2023-07-13T14:40:33;23.90;99.90
22781;DHT22;11557;50.884;4.322;2023-07-13T14:42:58;23.90;99.90
22781;DHT22;11557;50.884;4.322;2023-07-13T14:45:24;23.60;99.90
22781;DHT22;11557;50.884;4.322;2023-07-13T14:47:51;23.00;99.90
22781;DHT22;11557;50.884;4.322;2023-07-13T14:50:19;24.00;99.90
22781;DHT22;11557;50.884;4.322;2023-07-13T14:52:46;24.20;99.90
22781;DHT22;11557;50.884;4.322;2023-07-13T14:55:15;24.30;99.90
22781;DHT22;11557;50.884;4.322;2023-07-13T14:57:40;24.50;99.90
22781;DHT22;11557;50.884;4.322;2023-07-13T15:00:24;24.90;99.90
22781;DHT22;11557;50.884;4.322;2023-07-13T15:02:52;26.20;99.90
22781;DHT22;11557;50.884;4.322;2023-07-13T15:05:28;25.10;99.90
22781;DHT22;11557;50.884;4.322;2023-07-13T15:08:00;25.00;99.90
22781;DHT22;11557;50.884;4.322;2023-07-13T15:10:30;25.20;99.90
22781;DHT22;11557;50.884;4.322;2023-07-13T15:13:13;25.00;99.90
22781;DHT22;11557;50.884;4.322;2023-07-13T15:15:44;24.60;99.90
22781;DHT22;11557;50.884;4.322;2023-07-13T15:18:12;24.30;99.90
22781;DHT22;11557;50.884;4.322;2023-07-13T15:20:39;24.20;99.90
22781;DHT22;11557;50.884;4.322;2023-07-13T15:23:05;24.30;99.90
22781;DHT22;11557;50.884;4.322;2023-07-13T15:25:33;24.30;99.90
22781;DHT22;11557;50.884;4.322;2023-07-13T15:27:59;24.20;99.90
22781;DHT22;11557;50.884;4.322;2023-07-13T15:30:31;24.10;99.90
22781;DHT22;11557;50.884;4.322;2023-07-13T15:33:05;24.20;99.90
22781;DHT22;11557;50.884;4.322;2023-07-13T15:35:35;24.30;99.90
22781;DHT22;11557;50.884;4.322;2023-07-13T15:38:13;24.40;99.90
22781;DHT22;11557;50.884;4.322;2023-07-13T15:40:39;24.50;99.90
22781;DHT22;11557;50.884;4.322;2023-07-13T15:43:11;24.60;99.90
22781;DHT22;11557;50.884;4.322;2023-07-13T15:45:37;24.60;99.90
22781;DHT22;11557;50.884;4.322;2023-07-13T15:48:13;24.60;99.90
22781;DHT22;11557;50.884;4.322;2023-07-13T15:50:44;24.60;99.90
22781;DHT22;11557;50.884;4.322;2023-07-13T15:53:10;24.70;99.90
22781;DHT22;11557;50.884;4.322;2023-07-13T15:55:38;24.80;99.90
22781;DHT22;11557;50.884;4.322;2023-07-13T15:58:04;24.80;99.90
22781;DHT22;11557;50.884;4.322;2023-07-13T16:00:30;24.70;99.90
22781;DHT22;11557;50.884;4.322;2023-07-13T16:02:56;24.70;99.90
22781;DHT22;11557;50.884;4.322;2023-07-13T16:05:23;24.80;99.90
22781;DHT22;11557;50.884;4.322;2023-07-13T16:07:51;24.90;99.90
22781;DHT22;11557;50.884;4.322;2023-07-13T16:10:21;24.80;99.90
22781;DHT22;11557;50.884;4.322;2023-07-13T16:12:47;24.80;99.90
22781;DHT22;11557;50.884;4.322;2023-07-13T16:15:19;24.90;99.90